createdAt,value
2022-10-02T00:00:31.202Z,0.00
2022-10-02T00:01:31.240Z,0.00
2022-10-02T00:02:31.142Z,0.00
2022-10-02T00:03:31.143Z,0.00
2022-10-02T00:04:31.243Z,0.00
2022-10-02T00:05:31.153Z,0.00
2022-10-02T00:06:31.133Z,0.00
2022-10-02T00:07:31.203Z,0.00
2022-10-02T00:08:31.114Z,0.00
2022-10-02T00:09:31.132Z,0.00
2022-10-02T00:10:31.070Z,0.00
2022-10-02T00:11:31.059Z,0.00
2022-10-02T00:12:31.014Z,0.00
2022-10-02T00:13:31.039Z,0.00
2022-10-02T00:14:30.991Z,0.00
2022-10-02T00:15:31.127Z,0.00
2022-10-02T00:16:31.129Z,0.00
2022-10-02T00:17:30.972Z,0.00
2022-10-02T00:18:30.925Z,0.00
2022-10-02T00:19:30.981Z,0.00
2022-10-02T00:20:30.907Z,0.00
2022-10-02T00:21:30.954Z,0.00
2022-10-02T00:22:30.892Z,0.00
2022-10-02T00:23:30.919Z,0.00
2022-10-02T00:24:30.858Z,0.00
2022-10-02T00:25:30.882Z,0.00
2022-10-02T00:26:30.850Z,0.00
2022-10-02T00:27:30.826Z,0.00
2022-10-02T00:28:30.873Z,0.00
2022-10-02T00:29:30.789Z,0.00
2022-10-02T00:30:30.837Z,0.00
2022-10-02T00:31:30.828Z,0.00
2022-10-02T00:32:30.728Z,0.00
2022-10-02T00:33:30.764Z,0.00
2022-10-02T00:34:30.704Z,0.00
2022-10-02T00:35:30.741Z,0.00
2022-10-02T00:36:30.761Z,0.00
2022-10-02T00:37:30.667Z,0.00
2022-10-02T00:38:30.650Z,0.00
2022-10-02T00:39:30.653Z,0.00
2022-10-02T00:40:30.629Z,0.00
2022-10-02T00:41:30.655Z,0.00
2022-10-02T00:42:30.601Z,0.00
2022-10-02T00:43:30.591Z,0.00
2022-10-02T00:44:30.588Z,0.00
2022-10-02T00:45:30.642Z,0.00
2022-10-02T00:46:30.592Z,0.00
2022-10-02T00:47:30.643Z,0.00
2022-10-02T00:48:30.572Z,0.00
2022-10-02T00:49:30.575Z,0.00
2022-10-02T00:50:30.507Z,0.00
2022-10-02T00:51:30.473Z,0.00
2022-10-02T00:52:30.483Z,0.00
2022-10-02T00:53:30.475Z,0.00
2022-10-02T00:54:30.491Z,0.00
2022-10-02T00:55:30.447Z,0.00
2022-10-02T00:56:30.422Z,0.00
2022-10-02T00:57:30.399Z,0.00
2022-10-02T00:58:30.421Z,0.00
2022-10-02T00:59:30.383Z,0.00
2022-10-02T01:00:30.416Z,0.00
2022-10-02T01:01:30.324Z,0.00
2022-10-02T01:02:30.346Z,0.00
2022-10-02T01:03:30.293Z,0.00
2022-10-02T01:04:30.290Z,0.00
2022-10-02T01:05:30.267Z,0.00
2022-10-02T01:06:30.287Z,0.00
2022-10-02T01:07:30.295Z,0.00
2022-10-02T01:08:30.274Z,0.00
2022-10-02T01:09:30.240Z,0.00
2022-10-02T01:10:30.306Z,0.00
2022-10-02T01:11:30.188Z,0.00
2022-10-02T01:12:30.217Z,0.00
2022-10-02T01:13:30.189Z,0.00
2022-10-02T01:14:30.151Z,0.00
2022-10-02T01:15:30.130Z,0.00
2022-10-02T01:16:30.174Z,0.00
2022-10-02T01:17:30.111Z,0.00
2022-10-02T01:18:30.083Z,0.00
2022-10-02T01:19:30.094Z,0.00
2022-10-02T01:20:30.059Z,0.00
2022-10-02T01:21:30.076Z,0.00
2022-10-02T01:22:30.055Z,0.00
2022-10-02T01:23:30.090Z,0.00
2022-10-02T01:24:30.024Z,0.00
2022-10-02T01:25:29.986Z,0.00
2022-10-02T01:26:30.027Z,0.00
2022-10-02T01:27:29.950Z,0.00
2022-10-02T01:28:30.127Z,0.00
2022-10-02T01:29:29.985Z,0.00
2022-10-02T01:30:29.911Z,0.00
2022-10-02T01:31:29.915Z,0.00
2022-10-02T01:32:29.923Z,0.00
2022-10-02T01:33:29.908Z,0.00
2022-10-02T01:34:29.939Z,0.00
2022-10-02T01:35:29.858Z,0.00
2022-10-02T01:36:29.853Z,0.00
2022-10-02T01:37:29.829Z,0.00
2022-10-02T01:38:29.824Z,0.00
2022-10-02T01:39:29.811Z,0.00
2022-10-02T01:40:29.839Z,0.00
2022-10-02T01:41:29.747Z,0.00
2022-10-02T01:42:29.780Z,0.00
2022-10-02T01:43:29.789Z,0.00
2022-10-02T01:44:29.788Z,0.00
2022-10-02T01:45:29.792Z,0.00
2022-10-02T01:46:29.685Z,0.00
2022-10-02T01:47:29.642Z,0.00
2022-10-02T01:48:29.642Z,0.00
2022-10-02T01:49:29.651Z,0.00
2022-10-02T01:50:29.626Z,0.00
2022-10-02T01:51:29.607Z,0.00
2022-10-02T01:52:29.603Z,0.00
2022-10-02T01:53:29.566Z,0.00
2022-10-02T01:54:29.554Z,0.00
2022-10-02T01:55:29.536Z,0.00
2022-10-02T01:56:29.515Z,0.00
2022-10-02T01:57:29.553Z,0.00
2022-10-02T01:58:29.519Z,0.00
2022-10-02T01:59:29.485Z,0.00
2022-10-02T02:00:29.461Z,0.00
2022-10-02T02:01:29.503Z,0.00
2022-10-02T02:02:29.596Z,0.00
2022-10-02T02:03:29.436Z,0.00
2022-10-02T02:04:29.416Z,0.00
2022-10-02T02:05:29.400Z,0.00
2022-10-02T02:06:29.392Z,0.00
2022-10-02T02:07:29.377Z,0.00
2022-10-02T02:08:29.353Z,0.00
2022-10-02T02:09:29.375Z,0.00
2022-10-02T02:10:29.365Z,0.00
2022-10-02T02:11:29.311Z,0.00
2022-10-02T02:12:29.300Z,0.00
2022-10-02T02:13:29.281Z,0.00
2022-10-02T02:14:29.308Z,0.00
2022-10-02T02:15:29.296Z,0.00
2022-10-02T02:16:29.323Z,0.00
2022-10-02T02:17:29.219Z,0.00
2022-10-02T02:18:29.217Z,0.00
2022-10-02T02:19:29.225Z,0.00
2022-10-02T02:20:29.234Z,0.00
2022-10-02T02:21:29.207Z,0.00
2022-10-02T02:22:29.159Z,0.00
2022-10-02T02:23:29.157Z,0.00
2022-10-02T02:24:29.143Z,0.00
2022-10-02T02:25:29.190Z,0.00
2022-10-02T02:26:29.095Z,0.00
2022-10-02T02:27:29.082Z,0.00
2022-10-02T02:28:29.107Z,0.00
2022-10-02T02:29:29.059Z,0.00
2022-10-02T02:30:29.036Z,0.00
2022-10-02T02:31:29.057Z,0.00
2022-10-02T02:32:29.006Z,0.00
2022-10-02T02:33:28.988Z,0.00
2022-10-02T02:34:28.999Z,0.00
2022-10-02T02:35:28.977Z,0.00
2022-10-02T02:36:28.965Z,0.00
2022-10-02T02:37:28.945Z,0.00
2022-10-02T02:38:28.954Z,0.00
2022-10-02T02:39:28.907Z,0.00
2022-10-02T02:40:28.926Z,0.00
2022-10-02T02:41:28.870Z,0.00
2022-10-02T02:42:28.874Z,0.00
2022-10-02T02:43:28.849Z,0.00
2022-10-02T02:44:28.867Z,0.00
2022-10-02T02:45:28.839Z,0.00
2022-10-02T02:46:28.799Z,0.00
2022-10-02T02:47:28.803Z,0.00
2022-10-02T02:48:28.786Z,0.00
2022-10-02T02:49:28.769Z,0.00
2022-10-02T02:50:28.788Z,0.00
2022-10-02T02:51:28.741Z,0.00
2022-10-02T02:52:28.742Z,0.00
2022-10-02T02:53:28.692Z,0.00
2022-10-02T02:54:28.718Z,0.00
2022-10-02T02:55:28.699Z,0.00
2022-10-02T02:56:28.655Z,0.00
2022-10-02T02:57:28.649Z,0.00
2022-10-02T02:58:28.632Z,0.00
2022-10-02T02:59:28.621Z,0.00
2022-10-02T03:00:28.602Z,0.00
2022-10-02T03:01:28.628Z,0.00
2022-10-02T03:02:28.669Z,0.00
2022-10-02T03:03:28.560Z,0.00
2022-10-02T03:04:28.546Z,0.00
2022-10-02T03:05:28.539Z,0.00
2022-10-02T03:06:28.513Z,0.00
2022-10-02T03:07:28.520Z,0.00
2022-10-02T03:08:28.519Z,0.00
2022-10-02T03:09:28.477Z,0.00
2022-10-02T03:10:28.465Z,0.00
2022-10-02T03:11:28.449Z,0.00
2022-10-02T03:12:28.441Z,0.00
2022-10-02T03:13:28.416Z,0.00
2022-10-02T03:14:28.403Z,0.00
2022-10-02T03:15:28.469Z,0.00
2022-10-02T03:16:28.386Z,0.00
2022-10-02T03:17:28.358Z,0.00
2022-10-02T03:18:28.346Z,0.00
2022-10-02T03:19:28.338Z,0.00
2022-10-02T03:20:28.318Z,0.00
2022-10-02T03:21:28.329Z,0.00
2022-10-02T03:22:28.279Z,0.00
2022-10-02T03:23:28.296Z,0.00
2022-10-02T03:24:28.258Z,0.00
2022-10-02T03:25:28.241Z,0.00
2022-10-02T03:26:37.194Z,0.00
2022-10-02T03:27:32.608Z,0.00
2022-10-02T03:28:53.813Z,0.00
2022-10-02T03:29:29.186Z,0.00
2022-10-02T03:30:28.157Z,0.00
2022-10-02T03:31:28.217Z,0.00
2022-10-02T03:32:28.144Z,0.00
2022-10-02T03:33:28.173Z,0.00
2022-10-02T03:34:28.208Z,0.00
2022-10-02T03:35:28.096Z,0.00
2022-10-02T03:36:28.075Z,0.00
2022-10-02T03:37:28.103Z,0.00
2022-10-02T03:38:28.049Z,0.00
2022-10-02T03:39:28.046Z,0.00
2022-10-02T03:40:28.026Z,0.00
2022-10-02T03:41:28.017Z,0.00
2022-10-02T03:42:27.979Z,0.00
2022-10-02T03:43:27.967Z,0.00
2022-10-02T03:44:27.945Z,0.00
2022-10-02T03:45:50.053Z,0.00
2022-10-02T03:46:28.999Z,0.00
2022-10-02T03:47:27.928Z,0.00
2022-10-02T03:48:27.888Z,0.00
2022-10-02T03:49:27.890Z,0.00
2022-10-02T03:50:27.881Z,0.00
2022-10-02T03:51:27.863Z,0.00
2022-10-02T03:52:27.858Z,0.00
2022-10-02T03:53:27.825Z,0.00
2022-10-02T03:54:27.927Z,0.00
2022-10-02T03:55:27.845Z,0.00
2022-10-02T03:56:27.785Z,0.00
2022-10-02T03:57:27.772Z,0.00
2022-10-02T03:58:27.863Z,0.00
2022-10-02T03:59:27.745Z,0.00
2022-10-02T04:00:27.735Z,0.00
2022-10-02T04:01:27.762Z,0.00
2022-10-02T04:02:27.725Z,0.00
2022-10-02T04:03:27.719Z,0.00
2022-10-02T04:04:27.669Z,0.00
2022-10-02T04:05:27.651Z,0.00
2022-10-02T04:06:27.634Z,0.00
2022-10-02T04:07:27.636Z,0.00
2022-10-02T04:08:27.613Z,0.00
2022-10-02T04:09:27.613Z,0.00
2022-10-02T04:10:27.587Z,0.00
2022-10-02T04:11:27.585Z,0.00
2022-10-02T04:12:27.575Z,0.00
2022-10-02T04:13:27.576Z,0.00
2022-10-02T04:14:27.513Z,0.00
2022-10-02T04:15:27.515Z,0.00
2022-10-02T04:16:27.571Z,0.00
2022-10-02T04:17:27.549Z,0.00
2022-10-02T04:18:27.527Z,0.00
2022-10-02T04:19:27.484Z,0.00
2022-10-02T04:20:27.451Z,0.00
2022-10-02T04:21:27.430Z,0.00
2022-10-02T04:22:27.418Z,0.00
2022-10-02T04:23:27.401Z,0.00
2022-10-02T04:24:27.378Z,0.00
2022-10-02T04:25:27.410Z,0.00
2022-10-02T04:26:27.358Z,0.00
2022-10-02T04:27:27.350Z,0.00
2022-10-02T04:28:28.051Z,0.00
2022-10-02T04:29:27.322Z,0.00
2022-10-02T04:30:27.329Z,0.00
2022-10-02T04:31:27.388Z,0.00
2022-10-02T04:32:27.290Z,0.00
2022-10-02T04:33:27.264Z,0.00
2022-10-02T04:34:27.944Z,0.00
2022-10-02T04:35:27.242Z,0.00
2022-10-02T04:36:27.242Z,0.00
2022-10-02T04:37:27.202Z,0.00
2022-10-02T04:38:27.188Z,0.00
2022-10-02T04:39:27.179Z,0.00
2022-10-02T04:40:27.181Z,0.00
2022-10-02T04:41:27.153Z,0.00
2022-10-02T04:42:27.204Z,0.00
2022-10-02T04:43:27.127Z,0.00
2022-10-02T04:44:27.114Z,0.00
2022-10-02T04:45:27.120Z,0.00
2022-10-02T04:46:27.067Z,0.00
2022-10-02T04:47:27.063Z,0.00
2022-10-02T04:48:27.058Z,0.00
2022-10-02T04:49:27.072Z,0.00
2022-10-02T04:50:27.042Z,0.00
2022-10-02T04:51:27.006Z,0.00
2022-10-02T04:52:26.992Z,0.00
2022-10-02T04:53:26.984Z,0.00
2022-10-02T04:54:26.968Z,0.00
2022-10-02T04:55:26.977Z,0.00
2022-10-02T04:56:26.936Z,0.00
2022-10-02T04:57:26.944Z,0.00
2022-10-02T04:58:26.920Z,0.00
2022-10-02T04:59:26.909Z,0.00
2022-10-02T05:00:26.897Z,0.00
2022-10-02T05:01:26.887Z,0.00
2022-10-02T05:02:26.881Z,0.00
2022-10-02T05:03:26.877Z,0.00
2022-10-02T05:04:26.844Z,0.00
2022-10-02T05:05:26.821Z,0.00
2022-10-02T05:06:26.810Z,0.00
2022-10-02T05:07:26.804Z,0.00
2022-10-02T05:08:26.784Z,0.00
2022-10-02T05:09:28.510Z,0.00
2022-10-02T05:10:26.772Z,0.00
2022-10-02T05:11:26.775Z,0.00
2022-10-02T05:12:26.731Z,0.00
2022-10-02T05:13:26.713Z,0.00
2022-10-02T05:14:26.732Z,0.00
2022-10-02T05:15:26.668Z,0.00
2022-10-02T05:16:26.757Z,0.00
2022-10-02T05:17:26.645Z,0.00
2022-10-02T05:18:26.648Z,0.00
2022-10-02T05:19:26.625Z,0.00
2022-10-02T05:20:26.617Z,0.00
2022-10-02T05:21:26.586Z,0.00
2022-10-02T05:22:26.572Z,0.00
2022-10-02T05:23:26.584Z,0.00
2022-10-02T05:24:26.558Z,0.00
2022-10-02T05:25:26.540Z,0.00
2022-10-02T05:26:26.544Z,0.00
2022-10-02T05:27:26.517Z,0.00
2022-10-02T05:28:26.572Z,0.00
2022-10-02T05:29:26.475Z,0.00
2022-10-02T05:30:26.473Z,0.00
2022-10-02T05:31:26.501Z,0.00
2022-10-02T05:32:26.447Z,0.00
2022-10-02T05:33:26.435Z,0.00
2022-10-02T05:34:26.408Z,0.00
2022-10-02T05:35:26.408Z,0.00
2022-10-02T05:36:26.388Z,0.00
2022-10-02T05:37:26.399Z,0.00
2022-10-02T05:38:26.410Z,5.62
2022-10-02T05:39:26.345Z,5.62
2022-10-02T05:40:26.323Z,5.62
2022-10-02T05:41:26.309Z,5.62
2022-10-02T05:42:26.289Z,5.62
2022-10-02T05:43:26.319Z,5.62
2022-10-02T05:44:26.275Z,5.62
2022-10-02T05:45:26.261Z,5.62
2022-10-02T05:46:26.284Z,5.62
2022-10-02T05:47:26.223Z,5.62
2022-10-02T05:48:26.233Z,5.62
2022-10-02T05:49:26.202Z,5.62
2022-10-02T05:50:26.194Z,5.62
2022-10-02T05:51:26.162Z,11.25
2022-10-02T05:52:26.847Z,11.25
2022-10-02T05:53:26.150Z,11.25
2022-10-02T05:54:26.141Z,11.25
2022-10-02T05:55:26.117Z,11.25
2022-10-02T05:56:26.148Z,16.88
2022-10-02T05:57:26.076Z,16.88
2022-10-02T05:58:26.053Z,16.88
2022-10-02T05:59:26.062Z,16.88
2022-10-02T06:00:26.121Z,16.88
2022-10-02T06:01:34.781Z,16.88
2022-10-02T06:02:26.019Z,16.88
2022-10-02T06:03:25.995Z,16.88
2022-10-02T06:04:25.972Z,16.88
2022-10-02T06:05:25.983Z,16.88
2022-10-02T06:06:25.956Z,16.88
2022-10-02T06:07:25.952Z,16.88
2022-10-02T06:08:25.926Z,16.88
2022-10-02T06:09:25.922Z,16.88
2022-10-02T06:10:25.915Z,16.88
2022-10-02T06:11:25.923Z,16.88
2022-10-02T06:12:25.877Z,22.50
2022-10-02T06:13:25.845Z,22.50
2022-10-02T06:14:25.853Z,28.12
2022-10-02T06:15:25.932Z,22.50
2022-10-02T06:16:25.927Z,28.12
2022-10-02T06:17:25.843Z,28.12
2022-10-02T06:18:25.796Z,28.12
2022-10-02T06:19:25.794Z,33.75
2022-10-02T06:20:25.746Z,33.75
2022-10-02T06:21:26.359Z,33.75
2022-10-02T06:22:25.731Z,33.75
2022-10-02T06:23:25.753Z,33.75
2022-10-02T06:24:25.720Z,33.75
2022-10-02T06:25:25.686Z,39.38
2022-10-02T06:26:25.675Z,39.38
2022-10-02T06:27:25.680Z,45.00
2022-10-02T06:28:25.688Z,45.00
2022-10-02T06:29:27.339Z,50.62
2022-10-02T06:30:25.661Z,50.62
2022-10-02T06:31:25.727Z,56.25
2022-10-02T06:32:25.592Z,61.88
2022-10-02T06:33:25.585Z,67.50
2022-10-02T06:34:25.577Z,73.12
2022-10-02T06:35:25.545Z,67.50
2022-10-02T06:36:25.558Z,73.12
2022-10-02T06:37:25.551Z,73.12
2022-10-02T06:38:25.505Z,73.12
2022-10-02T06:39:25.512Z,73.12
2022-10-02T06:40:25.608Z,67.50
2022-10-02T06:41:25.473Z,61.88
2022-10-02T06:42:25.459Z,61.88
2022-10-02T06:43:25.444Z,67.50
2022-10-02T06:44:25.462Z,67.50
2022-10-02T06:45:25.496Z,67.50
2022-10-02T06:46:25.405Z,61.88
2022-10-02T06:47:25.407Z,61.88
2022-10-02T06:48:25.387Z,61.88
2022-10-02T06:49:25.394Z,61.88
2022-10-02T06:50:25.349Z,61.88
2022-10-02T06:51:25.373Z,61.88
2022-10-02T06:52:25.329Z,61.88
2022-10-02T06:53:25.354Z,56.25
2022-10-02T06:54:25.297Z,56.25
2022-10-02T06:55:25.277Z,56.25
2022-10-02T06:56:25.270Z,50.62
2022-10-02T06:57:25.415Z,50.62
2022-10-02T06:58:25.245Z,56.25
2022-10-02T06:59:25.334Z,56.25
2022-10-02T07:00:25.210Z,56.25
2022-10-02T07:01:25.250Z,61.88
2022-10-02T07:02:25.246Z,50.62
2022-10-02T07:03:25.193Z,56.25
2022-10-02T07:04:25.222Z,56.25
2022-10-02T07:05:25.151Z,56.25
2022-10-02T07:06:25.121Z,56.25
2022-10-02T07:07:25.112Z,61.88
2022-10-02T07:08:25.106Z,61.88
2022-10-02T07:09:25.191Z,61.88
2022-10-02T07:10:25.221Z,67.50
2022-10-02T07:11:25.071Z,73.12
2022-10-02T07:12:25.046Z,73.12
2022-10-02T07:13:25.042Z,78.75
2022-10-02T07:14:25.046Z,90.00
2022-10-02T07:15:25.006Z,112.50
2022-10-02T07:16:25.088Z,118.12
2022-10-02T07:17:25.004Z,118.12
2022-10-02T07:18:24.992Z,118.12
2022-10-02T07:19:24.961Z,112.50
2022-10-02T07:20:24.989Z,106.88
2022-10-02T07:21:24.950Z,112.50
2022-10-02T07:22:43.936Z,112.50
2022-10-02T07:23:25.909Z,112.50
2022-10-02T07:24:24.895Z,112.50
2022-10-02T07:25:24.908Z,118.12
2022-10-02T07:26:24.867Z,118.12
2022-10-02T07:27:24.871Z,118.12
2022-10-02T07:28:24.907Z,118.12
2022-10-02T07:29:24.837Z,118.12
2022-10-02T07:30:24.811Z,123.75
2022-10-02T07:31:24.854Z,118.12
2022-10-02T07:32:24.787Z,118.12
2022-10-02T07:33:29.816Z,101.25
2022-10-02T07:34:25.766Z,101.25
2022-10-02T07:35:24.800Z,101.25
2022-10-02T07:36:24.750Z,90.00
2022-10-02T07:37:24.736Z,90.00
2022-10-02T07:38:24.702Z,84.38
2022-10-02T07:39:24.684Z,84.38
2022-10-02T07:40:24.695Z,95.62
2022-10-02T07:41:24.668Z,106.88
2022-10-02T07:42:24.650Z,106.88
2022-10-02T07:43:24.636Z,112.50
2022-10-02T07:44:24.626Z,112.50
2022-10-02T07:45:24.683Z,90.00
2022-10-02T07:46:24.607Z,90.00
2022-10-02T07:47:24.585Z,90.00
2022-10-02T07:48:24.576Z,101.25
2022-10-02T07:49:24.567Z,112.50
2022-10-02T07:50:24.580Z,95.62
2022-10-02T07:51:24.546Z,90.00
2022-10-02T07:52:24.520Z,95.62
2022-10-02T07:53:24.507Z,84.38
2022-10-02T07:54:24.565Z,101.25
2022-10-02T07:55:24.473Z,67.50
2022-10-02T07:56:24.554Z,61.88
2022-10-02T07:57:24.445Z,61.88
2022-10-02T07:58:24.441Z,67.50
2022-10-02T07:59:24.436Z,67.50
2022-10-02T08:00:24.430Z,61.88
2022-10-02T08:01:24.404Z,84.38
2022-10-02T08:02:24.431Z,95.62
2022-10-02T08:03:24.456Z,78.75
2022-10-02T08:04:24.375Z,78.75
2022-10-02T08:05:24.380Z,84.38
2022-10-02T08:06:24.326Z,78.75
2022-10-02T08:07:24.322Z,84.38
2022-10-02T08:08:24.307Z,101.25
2022-10-02T08:09:24.294Z,78.75
2022-10-02T08:10:24.271Z,67.50
2022-10-02T08:11:24.276Z,73.12
2022-10-02T08:12:24.288Z,67.50
2022-10-02T08:13:24.253Z,56.25
2022-10-02T08:14:24.243Z,61.88
2022-10-02T08:15:24.204Z,78.75
2022-10-02T08:16:24.245Z,90.00
2022-10-02T08:17:24.245Z,90.00
2022-10-02T08:18:34.060Z,123.75
2022-10-02T08:19:25.159Z,146.25
2022-10-02T08:20:28.577Z,146.25
2022-10-02T08:21:25.133Z,163.12
2022-10-02T08:22:24.129Z,185.62
2022-10-02T08:23:24.126Z,219.38
2022-10-02T08:24:24.109Z,202.50
2022-10-02T08:25:24.075Z,202.50
2022-10-02T08:26:24.078Z,202.50
2022-10-02T08:27:24.043Z,236.25
2022-10-02T08:28:24.134Z,236.25
2022-10-02T08:29:24.066Z,213.75
2022-10-02T08:30:24.035Z,208.12
2022-10-02T08:31:24.166Z,202.50
2022-10-02T08:32:23.990Z,196.88
2022-10-02T08:33:23.971Z,185.62
2022-10-02T08:34:23.990Z,157.50
2022-10-02T08:35:23.939Z,112.50
2022-10-02T08:36:23.952Z,101.25
2022-10-02T08:37:23.938Z,95.62
2022-10-02T08:38:23.917Z,84.38
2022-10-02T08:39:23.898Z,78.75
2022-10-02T08:40:23.906Z,67.50
2022-10-02T08:41:23.862Z,84.38
2022-10-02T08:42:23.860Z,67.50
2022-10-02T08:43:23.827Z,101.25
2022-10-02T08:44:23.824Z,129.38
2022-10-02T08:45:23.884Z,106.88
2022-10-02T08:46:23.813Z,123.75
2022-10-02T08:47:23.774Z,95.62
2022-10-02T08:48:23.780Z,106.88
2022-10-02T08:49:23.758Z,129.38
2022-10-02T08:50:23.756Z,146.25
2022-10-02T08:51:23.733Z,163.12
2022-10-02T08:52:23.736Z,157.50
2022-10-02T08:53:23.685Z,157.50
2022-10-02T08:54:23.705Z,157.50
2022-10-02T08:55:23.670Z,140.62
2022-10-02T08:56:23.664Z,123.75
2022-10-02T08:57:23.642Z,106.88
2022-10-02T08:58:23.658Z,84.38
2022-10-02T08:59:23.624Z,67.50
2022-10-02T09:00:23.617Z,61.88
2022-10-02T09:01:23.637Z,61.88
2022-10-02T09:02:23.642Z,45.00
2022-10-02T09:03:23.575Z,56.25
2022-10-02T09:04:23.557Z,61.88
2022-10-02T09:05:23.547Z,84.38
2022-10-02T09:06:23.551Z,112.50
2022-10-02T09:07:27.456Z,146.25
2022-10-02T09:08:23.532Z,168.75
2022-10-02T09:09:23.501Z,191.25
2022-10-02T09:10:23.491Z,185.62
2022-10-02T09:11:23.458Z,140.62
2022-10-02T09:12:23.448Z,151.88
2022-10-02T09:13:23.481Z,174.38
2022-10-02T09:14:23.444Z,151.88
2022-10-02T09:15:23.413Z,112.50
2022-10-02T09:16:23.440Z,118.12
2022-10-02T09:17:23.378Z,73.12
2022-10-02T09:18:23.384Z,61.88
2022-10-02T09:19:23.370Z,61.88
2022-10-02T09:20:23.355Z,73.12
2022-10-02T09:21:23.337Z,73.12
2022-10-02T09:22:23.314Z,90.00
2022-10-02T09:23:23.298Z,118.12
2022-10-02T09:24:23.315Z,106.88
2022-10-02T09:25:23.285Z,95.62
2022-10-02T09:26:23.266Z,101.25
2022-10-02T09:27:23.244Z,101.25
2022-10-02T09:28:23.325Z,140.62
2022-10-02T09:29:23.219Z,168.75
2022-10-02T09:30:23.222Z,180.00
2022-10-02T09:31:23.221Z,202.50
2022-10-02T09:32:23.185Z,219.38
2022-10-02T09:33:30.704Z,225.00
2022-10-02T09:34:23.169Z,202.50
2022-10-02T09:35:23.146Z,185.62
2022-10-02T09:36:23.160Z,191.25
2022-10-02T09:37:23.105Z,196.88
2022-10-02T09:38:23.099Z,180.00
2022-10-02T09:39:23.073Z,180.00
2022-10-02T09:40:23.079Z,185.62
2022-10-02T09:41:23.055Z,185.62
2022-10-02T09:42:23.063Z,163.12
2022-10-02T09:43:23.029Z,174.38
2022-10-02T09:44:23.065Z,168.75
2022-10-02T09:45:23.106Z,157.50
2022-10-02T09:46:23.014Z,157.50
2022-10-02T09:47:22.978Z,146.25
2022-10-02T09:48:22.969Z,151.88
2022-10-02T09:49:22.961Z,168.75
2022-10-02T09:50:22.957Z,180.00
2022-10-02T09:51:22.932Z,180.00
2022-10-02T09:52:22.909Z,168.75
2022-10-02T09:53:22.918Z,146.25
2022-10-02T09:54:22.884Z,129.38
2022-10-02T09:55:22.897Z,118.12
2022-10-02T09:56:22.933Z,123.75
2022-10-02T09:57:22.840Z,146.25
2022-10-02T09:58:22.836Z,168.75
2022-10-02T09:59:22.811Z,180.00
2022-10-02T10:00:22.823Z,191.25
2022-10-02T10:01:22.832Z,185.62
2022-10-02T10:02:25.728Z,219.38
2022-10-02T10:03:22.787Z,230.62
2022-10-02T10:04:22.857Z,241.88
2022-10-02T10:05:22.754Z,219.38
2022-10-02T10:06:22.735Z,230.62
2022-10-02T10:07:22.705Z,247.50
2022-10-02T10:08:22.734Z,247.50
2022-10-02T10:09:22.688Z,258.75
2022-10-02T10:10:22.688Z,236.25
2022-10-02T10:11:22.661Z,225.00
2022-10-02T10:12:22.645Z,208.12
2022-10-02T10:13:22.626Z,202.50
2022-10-02T10:14:22.636Z,191.25
2022-10-02T10:15:22.617Z,196.88
2022-10-02T10:16:22.652Z,196.88
2022-10-02T10:17:22.598Z,196.88
2022-10-02T10:18:22.567Z,185.62
2022-10-02T10:19:22.567Z,180.00
2022-10-02T10:20:22.559Z,180.00
2022-10-02T10:21:24.733Z,180.00
2022-10-02T10:22:23.600Z,180.00
2022-10-02T10:23:22.509Z,168.75
2022-10-02T10:24:22.501Z,140.62
2022-10-02T10:25:22.506Z,157.50
2022-10-02T10:26:22.469Z,168.75
2022-10-02T10:27:22.437Z,174.38
2022-10-02T10:28:22.518Z,174.38
2022-10-02T10:29:22.442Z,180.00
2022-10-02T10:30:22.408Z,174.38
2022-10-02T10:31:22.442Z,180.00
2022-10-02T10:32:22.377Z,191.25
2022-10-02T10:33:22.352Z,196.88
2022-10-02T10:34:22.384Z,185.62
2022-10-02T10:35:22.336Z,180.00
2022-10-02T10:36:22.327Z,180.00
2022-10-02T10:37:22.328Z,174.38
2022-10-02T10:38:22.290Z,174.38
2022-10-02T10:39:22.288Z,185.62
2022-10-02T10:40:22.304Z,185.62
2022-10-02T10:41:22.263Z,191.25
2022-10-02T10:42:22.245Z,174.38
2022-10-02T10:43:22.235Z,135.00
2022-10-02T10:44:22.219Z,157.50
2022-10-02T10:45:22.238Z,174.38
2022-10-02T10:46:22.201Z,174.38
2022-10-02T10:47:22.190Z,208.12
2022-10-02T10:48:22.161Z,286.88
2022-10-02T10:49:22.148Z,281.25
2022-10-02T10:50:22.158Z,281.25
2022-10-02T10:51:22.117Z,236.25
2022-10-02T10:52:22.128Z,230.62
2022-10-02T10:53:22.090Z,253.12
2022-10-02T10:54:22.080Z,236.25
2022-10-02T10:55:22.069Z,230.62
2022-10-02T10:56:22.108Z,270.00
2022-10-02T10:57:22.040Z,309.38
2022-10-02T10:58:22.022Z,315.00
2022-10-02T10:59:25.250Z,298.12
2022-10-02T11:00:22.018Z,264.38
2022-10-02T11:01:22.041Z,315.00
2022-10-02T11:02:22.038Z,309.38
2022-10-02T11:03:21.960Z,337.50
2022-10-02T11:04:21.967Z,298.12
2022-10-02T11:05:21.974Z,202.50
2022-10-02T11:06:21.999Z,151.88
2022-10-02T11:07:21.904Z,163.12
2022-10-02T11:08:21.919Z,163.12
2022-10-02T11:09:21.921Z,219.38
2022-10-02T11:10:21.878Z,196.88
2022-10-02T11:11:21.850Z,191.25
2022-10-02T11:12:21.898Z,174.38
2022-10-02T11:13:21.835Z,180.00
2022-10-02T11:14:21.813Z,219.38
2022-10-02T11:15:21.815Z,241.88
2022-10-02T11:16:21.878Z,241.88
2022-10-02T11:17:21.774Z,219.38
2022-10-02T11:18:21.768Z,208.12
2022-10-02T11:19:21.959Z,191.25
2022-10-02T11:20:21.728Z,208.12
2022-10-02T11:21:21.738Z,202.50
2022-10-02T11:22:21.758Z,196.88
2022-10-02T11:23:21.701Z,180.00
2022-10-02T11:24:21.679Z,168.75
2022-10-02T11:25:21.694Z,185.62
2022-10-02T11:26:21.713Z,208.12
2022-10-02T11:27:21.642Z,191.25
2022-10-02T11:28:21.782Z,168.75
2022-10-02T11:29:21.631Z,163.12
2022-10-02T11:30:21.626Z,146.25
2022-10-02T11:31:21.635Z,140.62
2022-10-02T11:32:21.595Z,157.50
2022-10-02T11:33:21.560Z,168.75
2022-10-02T11:34:21.549Z,140.62
2022-10-02T11:35:21.534Z,112.50
2022-10-02T11:36:21.553Z,118.12
2022-10-02T11:37:21.515Z,140.62
2022-10-02T11:38:21.502Z,157.50
2022-10-02T11:39:21.492Z,168.75
2022-10-02T11:40:21.469Z,174.38
2022-10-02T11:41:21.456Z,191.25
2022-10-02T11:42:21.489Z,208.12
2022-10-02T11:43:21.445Z,225.00
2022-10-02T11:44:21.471Z,241.88
2022-10-02T11:45:21.415Z,258.75
2022-10-02T11:46:21.399Z,275.62
2022-10-02T11:47:21.392Z,298.12
2022-10-02T11:48:21.388Z,292.50
2022-10-02T11:49:21.376Z,286.88
2022-10-02T11:50:21.343Z,281.25
2022-10-02T11:51:21.338Z,286.88
2022-10-02T11:52:21.299Z,264.38
2022-10-02T11:53:21.300Z,275.62
2022-10-02T11:54:21.327Z,303.75
2022-10-02T11:55:21.275Z,298.12
2022-10-02T11:56:21.254Z,315.00
2022-10-02T11:57:21.241Z,309.38
2022-10-02T11:58:21.241Z,281.25
2022-10-02T11:59:21.244Z,258.75
2022-10-02T12:00:21.203Z,241.88
2022-10-02T12:01:21.201Z,247.50
2022-10-02T12:02:21.299Z,258.75
2022-10-02T12:03:21.263Z,247.50
2022-10-02T12:04:21.173Z,230.62
2022-10-02T12:05:21.142Z,202.50
2022-10-02T12:06:21.212Z,196.88
2022-10-02T12:07:21.127Z,191.25
2022-10-02T12:08:21.096Z,196.88
2022-10-02T12:09:21.100Z,213.75
2022-10-02T12:10:21.098Z,236.25
2022-10-02T12:11:21.061Z,258.75
2022-10-02T12:12:23.488Z,253.12
2022-10-02T12:13:22.033Z,225.00
2022-10-02T12:14:21.035Z,208.12
2022-10-02T12:15:21.032Z,196.88
2022-10-02T12:16:21.159Z,180.00
2022-10-02T12:17:20.972Z,196.88
2022-10-02T12:18:21.941Z,185.62
2022-10-02T12:19:20.967Z,180.00
2022-10-02T12:20:20.941Z,168.75
2022-10-02T12:21:20.948Z,146.25
2022-10-02T12:22:20.919Z,135.00
2022-10-02T12:23:20.899Z,151.88
2022-10-02T12:24:20.884Z,168.75
2022-10-02T12:25:20.881Z,191.25
2022-10-02T12:26:20.851Z,219.38
2022-10-02T12:27:20.846Z,247.50
2022-10-02T12:28:20.902Z,264.38
2022-10-02T12:29:20.856Z,275.62
2022-10-02T12:30:20.802Z,264.38
2022-10-02T12:31:20.845Z,247.50
2022-10-02T12:32:20.781Z,241.88
2022-10-02T12:33:20.791Z,219.38
2022-10-02T12:34:20.758Z,191.25
2022-10-02T12:35:20.776Z,180.00
2022-10-02T12:36:20.715Z,219.38
2022-10-02T12:37:20.733Z,264.38
2022-10-02T12:38:20.702Z,270.00
2022-10-02T12:39:22.091Z,247.50
2022-10-02T12:40:20.675Z,191.25
2022-10-02T12:41:20.705Z,168.75
2022-10-02T12:42:20.632Z,168.75
2022-10-02T12:43:20.647Z,174.38
2022-10-02T12:44:20.598Z,157.50
2022-10-02T12:45:20.605Z,135.00
2022-10-02T12:46:20.608Z,123.75
2022-10-02T12:47:20.580Z,95.62
2022-10-02T12:48:20.578Z,84.38
2022-10-02T12:49:20.565Z,73.12
2022-10-02T12:50:20.535Z,73.12
2022-10-02T12:51:20.528Z,84.38
2022-10-02T12:52:20.505Z,101.25
2022-10-02T12:53:20.512Z,123.75
2022-10-02T12:54:20.504Z,129.38